Independence of the Seas — C6WW4 — position and weather

sailwx.info

Track history (hours):
 
Tides and Currents Weather Stations Pressure Air Temp Water Temp Dewpoint Dewpoint Depression Visibility Wind Speed Wind Dir Waves Ship Positions

Independence of the Seas

Last reported at 2016-Jun-25 12:24 UTC. Time now 2016-Jun-25 14:18 UTC.
Position N 41°22' E 002°11'.

Length 339 m; draft 8.8 m.

Type: Passenger vessel. MMSI: 309374000.

Date/timePositionNaut miles runAvg speedWind from/ knotsBaromVisibWave heightAir tempDewpointWater temp
2016-Jun-25 12:24N 41°22' E 002°11'0 0.0
2016-Jun-25 11:30N 41°22' E 002°11'0 0.0
2016-Jun-25 10:33N 41°22' E 002°11'0 0.0
2016-Jun-25 09:30N 41°22' E 002°11'0 0.0
2016-Jun-25 08:18N 41°22' E 002°11'7 1.8
2016-Jun-25 04:33N 41°17' E 002°16'1312.9
2016-Jun-25 03:33N 41°19' E 002°33'1313.1
2016-Jun-25 02:32N 41°23' E 002°50'1917.8
2016-Jun-25 01:29N 41°32' E 003°13'306206.0
2016-Jun-25 00:00N 41°42' W 003°36'336535.0 020 / 171016.0 5.4 0.522.019.019.0
2016-Jun-24 23:22N 41°53' E 003°55'1417.3
2016-Jun-24 22:33N 42°02' E 004°10'1817.0
2016-Jun-24 21:28N 42°13' E 004°30'1617.0
2016-Jun-24 20:33N 42°22' E 004°47'1717.1
2016-Jun-24 19:32N 42°32' E 005°06'4317.5
2016-Jun-24 17:06N 42°59' E 005°52'710.4
2016-Jun-24 16:24N 43°05' E 005°56'2 2.1
2016-Jun-24 15:33N 43°06' E 005°54'0 0.0
2016-Jun-24 14:33N 43°06' E 005°54'0 0.0
2016-Jun-24 13:33N 43°06' E 005°54'0 0.0
2016-Jun-24 12:33N 43°06' E 005°54'0 0.0
2016-Jun-24 11:33N 43°06' E 005°54'0 0.0
2016-Jun-24 10:33N 43°06' E 005°54'0 0.0
2016-Jun-24 09:33N 43°06' E 005°54'0 0.0
2016-Jun-24 08:33N 43°06' E 005°54'0 0.0
2016-Jun-24 07:33N 43°06' E 005°54'54672.2
2016-Jun-24 00:00N 42°42' W 006°30'601134.7 290 / 221018.010.8 0.522.017.419.0
2016-Jun-23 19:32N 43°14' E 007°10'9 8.5
2016-Jun-23 18:31N 43°22' E 007°16'9 9.2
2016-Jun-23 17:34N 43°31' E 007°17'9 9.1
2016-Jun-23 16:33N 43°40' E 007°19'1 1.2
2016-Jun-23 15:28N 43°41' E 007°19'0 0.0
2016-Jun-23 13:33N 43°41' E 007°19'0 0.0
2016-Jun-23 12:33N 43°41' E 007°19'0 0.0
2016-Jun-23 11:33N 43°41' E 007°19'0 0.0
2016-Jun-23 10:34N 43°41' E 007°19'0 0.0
2016-Jun-23 09:33N 43°41' E 007°19'0 0.0
2016-Jun-23 08:34N 43°41' E 007°19'0 0.0
2016-Jun-23 07:29N 43°41' E 007°19'9 4.7
2016-Jun-23 05:33N 43°32' E 007°15'9217.3
2016-Jun-23 00:15N 42°26' E 005°49'5101981.9
2016-Jun-23 00:00N 42°24' W 005°42'41956.4 310 / 91021.010.8 20.018.519.0
2016-Jun-22 16:33N 40°43' E 003°22'2020.1
2016-Jun-22 15:33N 40°29' E 003°03'2020.4
2016-Jun-22 14:33N 40°15' E 002°43'2120.8
2016-Jun-22 13:33N 40°01' E 002°23'2120.6
2016-Jun-22 12:32N 39°46' E 002°03'2020.3
2016-Jun-22 11:33N 39°33' E 001°44'2019.9
2016-Jun-22 10:33N 39°19' E 001°25'12420.0
2016-Jun-22 04:21N 37°44' W 000°17'1619.9
2016-Jun-22 03:33N 37°33' W 000°31'2320.1
2016-Jun-22 02:23N 37°17' W 000°53'4619.2
2016-Jun-22 00:00N 36°42' W 001°30'4021.1 030 / 271019.0 5.4 1.021.019.519.0
2016-Jun-21 22:05N 36°22' W 002°14'15320.3
2016-Jun-21 14:33N 36°06' W 005°22'3 0.5
2016-Jun-21 07:12N 36°03' W 005°21'10418.4
2016-Jun-21 01:34N 36°12' W 007°29'3019.3
2016-Jun-21 00:00N 36°18' W 008°06'5219.0 110 / 151017.0 5.4 0.522.017.419.0
2016-Jun-20 21:16N 36°32' W 009°08'1217.3
2016-Jun-20 20:34N 36°38' W 009°22'1817.4
2016-Jun-20 19:33N 36°52' W 009°34'1817.8
2016-Jun-20 18:32N 37°10' W 009°38'1817.8
2016-Jun-20 17:33N 37°27' W 009°44'1818.0
2016-Jun-20 16:33N 37°45' W 009°49'1818.0
2016-Jun-20 15:33N 38°02' W 009°54'1818.1
2016-Jun-20 14:33N 38°19' W 009°60'29320.1
2016-Jun-20 00:00N 43°12' W 010°00'48519.8 350 / 71027.010.8 0.516.016.018.0
2016-Jun-18 23:30N 49°50' W 003°16'2121.3
2016-Jun-18 22:32N 49°59' W 002°48'6518.8
2016-Jun-18 19:03N 50°27' W 001°16'816.7
2016-Jun-18 18:33N 50°32' W 001°05'1211.6
2016-Jun-18 17:34N 50°43' W 001°01'1312.5
2016-Jun-18 16:33N 50°49' W 001°18'6 0.5
2016-Jun-18 04:06N 50°54' W 001°25'4 6.6
2016-Jun-18 03:33N 50°51' W 001°21'9 8.7
2016-Jun-18 02:34N 50°46' W 001°10'1211.8
2016-Jun-18 01:33N 50°36' W 000°60'10414.8
2016-Jun-17 18:31N 49°41' W 003°18'30316.3
2016-Jun-17 00:00N 45°42' W 007°54'40915.9 330 / 321012.0 5.4 1.515.013.318.0
2016-Jun-15 22:12N 39°02' W 009°51'1815.6
2016-Jun-15 21:04N 38°44' W 009°50'815.1
2016-Jun-15 20:33N 38°37' W 009°47'1615.8
2016-Jun-15 19:33N 38°35' W 009°26'1514.6
2016-Jun-15 18:33N 38°42' W 009°10'2 2.0
2016-Jun-15 17:33N 38°43' W 009°07'0 0.0
2016-Jun-15 16:30N 38°43' W 009°07'0 0.0
2016-Jun-15 15:27N 38°43' W 009°07'0 0.0
2016-Jun-15 14:24N 38°43' W 009°07'0 0.0
2016-Jun-15 12:30N 38°43' W 009°07'  
Track history (hours):
 
Tides and Currents Weather Stations Pressure Air Temp Water Temp Dewpoint Dewpoint Depression Visibility Wind Speed Wind Dir Waves Ship Positions

Independence of the Seas

Last reported at 2016-Jun-25 12:24 UTC. Time now 2016-Jun-25 14:18 UTC.
Position N 41°22' E 002°11'.

Length 339 m; draft 8.8 m.

Type: Passenger vessel. MMSI: 309374000.

Date/timePositionNaut miles runAvg speedWind from/ knotsBaromVisibWave heightAir tempDewpointWater temp
2016-Jun-25 12:24N 41°22' E 002°11'0 0.0
2016-Jun-25 11:30N 41°22' E 002°11'0 0.0
2016-Jun-25 10:33N 41°22' E 002°11'0 0.0
2016-Jun-25 09:30N 41°22' E 002°11'0 0.0
2016-Jun-25 08:18N 41°22' E 002°11'7 1.8
2016-Jun-25 04:33N 41°17' E 002°16'1312.9
2016-Jun-25 03:33N 41°19' E 002°33'1313.1
2016-Jun-25 02:32N 41°23' E 002°50'1917.8
2016-Jun-25 01:29N 41°32' E 003°13'306206.0
2016-Jun-25 00:00N 41°42' W 003°36'336535.0 020 / 171016.0 5.4 0.522.019.019.0
2016-Jun-24 23:22N 41°53' E 003°55'1417.3
2016-Jun-24 22:33N 42°02' E 004°10'1817.0
2016-Jun-24 21:28N 42°13' E 004°30'1617.0
2016-Jun-24 20:33N 42°22' E 004°47'1717.1
2016-Jun-24 19:32N 42°32' E 005°06'4317.5
2016-Jun-24 17:06N 42°59' E 005°52'710.4
2016-Jun-24 16:24N 43°05' E 005°56'2 2.1
2016-Jun-24 15:33N 43°06' E 005°54'0 0.0
2016-Jun-24 14:33N 43°06' E 005°54'0 0.0
2016-Jun-24 13:33N 43°06' E 005°54'0 0.0
2016-Jun-24 12:33N 43°06' E 005°54'0 0.0
2016-Jun-24 11:33N 43°06' E 005°54'0 0.0
2016-Jun-24 10:33N 43°06' E 005°54'0 0.0
2016-Jun-24 09:33N 43°06' E 005°54'0 0.0
2016-Jun-24 08:33N 43°06' E 005°54'0 0.0
2016-Jun-24 07:33N 43°06' E 005°54'54672.2
2016-Jun-24 00:00N 42°42' W 006°30'601134.7 290 / 221018.010.8 0.522.017.419.0
2016-Jun-23 19:32N 43°14' E 007°10'9 8.5
2016-Jun-23 18:31N 43°22' E 007°16'9 9.2
2016-Jun-23 17:34N 43°31' E 007°17'9 9.1
2016-Jun-23 16:33N 43°40' E 007°19'1 1.2
2016-Jun-23 15:28N 43°41' E 007°19'0 0.0
2016-Jun-23 13:33N 43°41' E 007°19'0 0.0
2016-Jun-23 12:33N 43°41' E 007°19'0 0.0
2016-Jun-23 11:33N 43°41' E 007°19'0 0.0
2016-Jun-23 10:34N 43°41' E 007°19'0 0.0
2016-Jun-23 09:33N 43°41' E 007°19'0 0.0
2016-Jun-23 08:34N 43°41' E 007°19'0 0.0
2016-Jun-23 07:29N 43°41' E 007°19'9 4.7
2016-Jun-23 05:33N 43°32' E 007°15'9217.3
2016-Jun-23 00:15N 42°26' E 005°49'5101981.9
2016-Jun-23 00:00N 42°24' W 005°42'41956.4 310 / 91021.010.8 20.018.519.0
2016-Jun-22 16:33N 40°43' E 003°22'2020.1
2016-Jun-22 15:33N 40°29' E 003°03'2020.4
2016-Jun-22 14:33N 40°15' E 002°43'2120.8
2016-Jun-22 13:33N 40°01' E 002°23'2120.6
2016-Jun-22 12:32N 39°46' E 002°03'2020.3
2016-Jun-22 11:33N 39°33' E 001°44'2019.9
2016-Jun-22 10:33N 39°19' E 001°25'12420.0
2016-Jun-22 04:21N 37°44' W 000°17'1619.9
2016-Jun-22 03:33N 37°33' W 000°31'2320.1
2016-Jun-22 02:23N 37°17' W 000°53'4619.2
2016-Jun-22 00:00N 36°42' W 001°30'4021.1 030 / 271019.0 5.4 1.021.019.519.0
2016-Jun-21 22:05N 36°22' W 002°14'15320.3
2016-Jun-21 14:33N 36°06' W 005°22'3 0.5
2016-Jun-21 07:12N 36°03' W 005°21'10418.4
2016-Jun-21 01:34N 36°12' W 007°29'3019.3
2016-Jun-21 00:00N 36°18' W 008°06'5219.0 110 / 151017.0 5.4 0.522.017.419.0
2016-Jun-20 21:16N 36°32' W 009°08'1217.3
2016-Jun-20 20:34N 36°38' W 009°22'1817.4
2016-Jun-20 19:33N 36°52' W 009°34'1817.8
2016-Jun-20 18:32N 37°10' W 009°38'1817.8
2016-Jun-20 17:33N 37°27' W 009°44'1818.0
2016-Jun-20 16:33N 37°45' W 009°49'1818.0
2016-Jun-20 15:33N 38°02' W 009°54'1818.1
2016-Jun-20 14:33N 38°19' W 009°60'29320.1
2016-Jun-20 00:00N 43°12' W 010°00'48519.8 350 / 71027.010.8 0.516.016.018.0
2016-Jun-18 23:30N 49°50' W 003°16'2121.3
2016-Jun-18 22:32N 49°59' W 002°48'6518.8
2016-Jun-18 19:03N 50°27' W 001°16'816.7
2016-Jun-18 18:33N 50°32' W 001°05'1211.6
2016-Jun-18 17:34N 50°43' W 001°01'1312.5
2016-Jun-18 16:33N 50°49' W 001°18'6 0.5
2016-Jun-18 04:06N 50°54' W 001°25'4 6.6
2016-Jun-18 03:33N 50°51' W 001°21'9 8.7
2016-Jun-18 02:34N 50°46' W 001°10'1211.8
2016-Jun-18 01:33N 50°36' W 000°60'10414.8
2016-Jun-17 18:31N 49°41' W 003°18'30316.3
2016-Jun-17 00:00N 45°42' W 007°54'40915.9 330 / 321012.0 5.4 1.515.013.318.0
2016-Jun-15 22:12N 39°02' W 009°51'1815.6
2016-Jun-15 21:04N 38°44' W 009°50'815.1
2016-Jun-15 20:33N 38°37' W 009°47'1615.8
2016-Jun-15 19:33N 38°35' W 009°26'1514.6
2016-Jun-15 18:33N 38°42' W 009°10'2 2.0
2016-Jun-15 17:33N 38°43' W 009°07'0 0.0
2016-Jun-15 16:30N 38°43' W 009°07'0 0.0
2016-Jun-15 15:27N 38°43' W 009°07'0 0.0
2016-Jun-15 14:24N 38°43' W 009°07'0 0.0
2016-Jun-15 12:30N 38°43' W 009°07'  

Dump ship's entire track history